Spring Lake, New Jersey
Current Conditions -  °F | °C
As of 10:15 PM on Wednesday 22 Oct 2014 (Local Time) from KBLM Reporting Station
Overcast Overcast  
Wind Chill: 52°   Ceiling: 1700
Heat Index: 52°   Visibility: 6mi
Dew Point: 45°   Wind: 17mph
Humidity: 76%   Direction: 340°NNW
Pressure: 29.74"   Gusts: 24mph
Location:  40.15°N, 74.03°W
Report Text: KBLM 230215Z AUTO 34015G21KT 6SM BKN017 OVC022 11/07 A2974 RMK AO1 P0004
Loading
Personal Weather Stations






























Interactive Weather Map
Tropical Storm Tracking
New forecast layout! Learn more

10-Day Weather Forecast

Advertisements
Track Severe Weather on mobile